Time,TemperatureF,DewpointF,PressureIn,WindDirection,WindDirectionDegrees,WindSpeedMPH,WindSpeedGustMPH,Humidity,HourlyPrecipIn,Conditions,Clouds,dailyrainin,SoftwareType,DateUTC
2013-01-27 01:00:00,38.0,-99.9,-100.00,SSE,165,1.0,2.0,-999,-99.99,,,-99.99,,2013-01-27 09:00:00,
2013-01-27 01:03:00,38.0,-99.9,-100.00,NNW,340,0.0,1.0,-999,-99.99,,,-99.99,,2013-01-27 09:03:00,
2013-01-27 01:11:00,38.0,-99.9,-100.00,NNW,340,0.0,1.0,-999,-99.99,,,-99.99,,2013-01-27 09:11:00,
2013-01-27 03:01:00,38.0,-99.9,-100.00,ESE,115,2.0,3.0,-999,-99.99,,,-99.99,,2013-01-27 11:01:00,
2013-01-27 03:11:00,38.0,-99.9,-100.00,ESE,115,2.0,3.0,-999,-99.99,,,-99.99,,2013-01-27 11:11:00,
2013-01-27 05:02:00,37.0,-99.9,-100.00,WNW,300,0.0,1.0,-999,-99.99,,,-99.99,,2013-01-27 13:02:00,
2013-01-27 05:12:00,37.0,-99.9,-100.00,WNW,300,0.0,1.0,-999,-99.99,,,-99.99,,2013-01-27 13:12:00,
2013-01-27 07:02:00,37.0,-99.9,-100.00,ESE,115,3.0,5.0,-999,-99.99,,,-99.99,,2013-01-27 15:02:00,
2013-01-27 07:12:00,37.0,-99.9,-100.00,ESE,115,3.0,5.0,-999,-99.99,,,-99.99,,2013-01-27 15:12:00,
2013-01-27 09:02:00,37.0,-99.9,-100.00,ESE,105,3.0,6.0,-999,-99.99,,,-99.99,,2013-01-27 17:02:00,
2013-01-27 09:12:00,37.0,-99.9,-100.00,ESE,105,3.0,6.0,-999,-99.99,,,-99.99,,2013-01-27 17:12:00,
2013-01-27 11:02:00,37.0,-99.9,-100.00,East,100,2.0,5.0,-999,-99.99,,,-99.99,,2013-01-27 19:02:00,
2013-01-27 11:12:00,37.0,-99.9,-100.00,East,100,2.0,5.0,-999,-99.99,,,-99.99,,2013-01-27 19:12:00,
2013-01-27 13:02:00,38.0,-99.9,-100.00,ESE,120,1.0,3.0,-999,-99.99,,,-99.99,,2013-01-27 21:02:00,
2013-01-27 13:12:00,38.0,-99.9,-100.00,ESE,120,1.0,3.0,-999,-99.99,,,-99.99,,2013-01-27 21:12:00,
2013-01-27 15:02:00,38.0,-99.9,-100.00,SE,130,2.0,3.0,-999,-99.99,,,-99.99,,2013-01-27 23:02:00,
2013-01-27 15:12:00,38.0,-99.9,-100.00,SE,130,2.0,3.0,-999,-99.99,,,-99.99,,2013-01-27 23:12:00,
2013-01-27 17:02:00,38.0,-99.9,-100.00,NNW,345,0.0,2.0,-999,-99.99,,,-99.99,,2013-01-28 01:02:00,
2013-01-27 17:12:00,38.0,-99.9,-100.00,NNW,345,0.0,2.0,-999,-99.99,,,-99.99,,2013-01-28 01:12:00,
2013-01-27 19:02:00,37.0,-99.9,-100.00,ESE,105,3.0,6.0,-999,-99.99,,,-99.99,,2013-01-28 03:02:00,
2013-01-27 19:12:00,37.0,-99.9,-100.00,ESE,105,3.0,6.0,-999,-99.99,,,-99.99,,2013-01-28 03:12:00,
2013-01-27 21:04:00,37.0,-99.9,-100.00,ESE,105,2.0,5.0,-999,-99.99,,,-99.99,,2013-01-28 05:04:00,
2013-01-27 21:12:00,37.0,-99.9,-100.00,ESE,105,2.0,5.0,-999,-99.99,,,-99.99,,2013-01-28 05:12:00,
2013-01-27 23:03:00,37.0,-99.9,-100.00,ESE,115,3.0,3.0,-999,-99.99,,,-99.99,,2013-01-28 07:03:00,
2013-01-27 23:11:00,37.0,-99.9,-100.00,ESE,115,3.0,3.0,-999,-99.99,,,-99.99,,2013-01-28 07:11:00,